sensor_id;sensor_type;location;lat;lon;timestamp;P1;durP1;ratioP1;P2;durP2;ratioP2
4521;SDS011;2273;48.464;11.926;2023-02-04T00:02:25;6.10;;;3.20;;
4521;SDS011;2273;48.464;11.926;2023-02-04T00:04:50;8.23;;;3.10;;
4521;SDS011;2273;48.464;11.926;2023-02-04T00:07:16;5.67;;;3.37;;
4521;SDS011;2273;48.464;11.926;2023-02-04T00:09:43;7.00;;;2.80;;
4521;SDS011;2273;48.464;11.926;2023-02-04T00:12:11;17.93;;;3.80;;
4521;SDS011;2273;48.464;11.926;2023-02-04T00:14:37;6.07;;;3.00;;
4521;SDS011;2273;48.464;11.926;2023-02-04T00:17:02;8.33;;;2.90;;
4521;SDS011;2273;48.464;11.926;2023-02-04T00:19:28;6.50;;;3.17;;
4521;SDS011;2273;48.464;11.926;2023-02-04T00:21:53;8.83;;;2.83;;
4521;SDS011;2273;48.464;11.926;2023-02-04T00:24:19;16.07;;;3.20;;
4521;SDS011;2273;48.464;11.926;2023-02-04T00:26:44;10.23;;;3.33;;
4521;SDS011;2273;48.464;11.926;2023-02-04T00:29:09;13.47;;;3.60;;
4521;SDS011;2273;48.464;11.926;2023-02-04T00:31:36;17.70;;;3.20;;
4521;SDS011;2273;48.464;11.926;2023-02-04T00:34:01;9.40;;;3.00;;
4521;SDS011;2273;48.464;11.926;2023-02-04T00:36:28;15.93;;;3.90;;
4521;SDS011;2273;48.464;11.926;2023-02-04T00:38:54;11.83;;;4.20;;
4521;SDS011;2273;48.464;11.926;2023-02-04T00:41:19;11.63;;;3.73;;
4521;SDS011;2273;48.464;11.926;2023-02-04T00:43:44;10.03;;;2.97;;
4521;SDS011;2273;48.464;11.926;2023-02-04T00:46:10;12.03;;;3.33;;
4521;SDS011;2273;48.464;11.926;2023-02-04T00:48:35;10.40;;;3.63;;
4521;SDS011;2273;48.464;11.926;2023-02-04T00:51:01;9.43;;;4.20;;
4521;SDS011;2273;48.464;11.926;2023-02-04T00:53:26;9.10;;;3.50;;
4521;SDS011;2273;48.464;11.926;2023-02-04T00:55:52;12.20;;;3.70;;
4521;SDS011;2273;48.464;11.926;2023-02-04T00:58:17;12.83;;;4.73;;
4521;SDS011;2273;48.464;11.926;2023-02-04T01:00:42;12.80;;;3.30;;
4521;SDS011;2273;48.464;11.926;2023-02-04T01:03:08;10.67;;;3.90;;
4521;SDS011;2273;48.464;11.926;2023-02-04T01:05:33;24.07;;;4.03;;
4521;SDS011;2273;48.464;11.926;2023-02-04T01:07:59;8.80;;;3.63;;
4521;SDS011;2273;48.464;11.926;2023-02-04T01:10:24;18.23;;;4.10;;
4521;SDS011;2273;48.464;11.926;2023-02-04T01:12:50;9.00;;;3.37;;
4521;SDS011;2273;48.464;11.926;2023-02-04T01:15:16;13.70;;;4.13;;
4521;SDS011;2273;48.464;11.926;2023-02-04T01:17:41;17.80;;;4.13;;
4521;SDS011;2273;48.464;11.926;2023-02-04T01:20:07;10.77;;;3.70;;
4521;SDS011;2273;48.464;11.926;2023-02-04T01:22:34;7.40;;;3.60;;
4521;SDS011;2273;48.464;11.926;2023-02-04T01:24:59;13.90;;;3.77;;
4521;SDS011;2273;48.464;11.926;2023-02-04T01:27:40;14.90;;;3.70;;
4521;SDS011;2273;48.464;11.926;2023-02-04T01:30:06;8.70;;;3.37;;
4521;SDS011;2273;48.464;11.926;2023-02-04T01:32:32;16.57;;;3.77;;
4521;SDS011;2273;48.464;11.926;2023-02-04T01:34:58;14.33;;;4.20;;
4521;SDS011;2273;48.464;11.926;2023-02-04T01:37:23;9.67;;;3.60;;
4521;SDS011;2273;48.464;11.926;2023-02-04T01:39:50;12.00;;;4.27;;
4521;SDS011;2273;48.464;11.926;2023-02-04T01:42:15;11.93;;;3.70;;
4521;SDS011;2273;48.464;11.926;2023-02-04T01:44:41;11.53;;;3.70;;
4521;SDS011;2273;48.464;11.926;2023-02-04T01:47:07;9.70;;;4.13;;
4521;SDS011;2273;48.464;11.926;2023-02-04T01:49:33;17.50;;;4.87;;
4521;SDS011;2273;48.464;11.926;2023-02-04T01:51:58;14.30;;;4.20;;
4521;SDS011;2273;48.464;11.926;2023-02-04T01:54:24;10.83;;;4.07;;
4521;SDS011;2273;48.464;11.926;2023-02-04T01:56:50;12.60;;;4.13;;
4521;SDS011;2273;48.464;11.926;2023-02-04T01:59:16;13.80;;;4.00;;
4521;SDS011;2273;48.464;11.926;2023-02-04T02:01:43;12.07;;;4.20;;
4521;SDS011;2273;48.464;11.926;2023-02-04T02:04:12;9.50;;;3.50;;
4521;SDS011;2273;48.464;11.926;2023-02-04T02:06:40;12.87;;;4.10;;
4521;SDS011;2273;48.464;11.926;2023-02-04T02:09:08;13.80;;;4.80;;
4521;SDS011;2273;48.464;11.926;2023-02-04T02:11:34;7.83;;;4.13;;
4521;SDS011;2273;48.464;11.926;2023-02-04T02:13:59;13.33;;;4.13;;
4521;SDS011;2273;48.464;11.926;2023-02-04T02:16:25;11.03;;;3.70;;
4521;SDS011;2273;48.464;11.926;2023-02-04T02:18:50;8.47;;;3.90;;
4521;SDS011;2273;48.464;11.926;2023-02-04T02:21:20;19.00;;;4.07;;
4521;SDS011;2273;48.464;11.926;2023-02-04T02:23:53;14.40;;;4.03;;
4521;SDS011;2273;48.464;11.926;2023-02-04T02:26:22;17.17;;;3.63;;
4521;SDS011;2273;48.464;11.926;2023-02-04T02:28:48;13.03;;;3.67;;
4521;SDS011;2273;48.464;11.926;2023-02-04T02:31:15;10.30;;;4.20;;
4521;SDS011;2273;48.464;11.926;2023-02-04T02:33:41;8.87;;;2.93;;
4521;SDS011;2273;48.464;11.926;2023-02-04T02:36:07;11.37;;;3.50;;
4521;SDS011;2273;48.464;11.926;2023-02-04T02:38:33;14.83;;;5.00;;
4521;SDS011;2273;48.464;11.926;2023-02-04T02:40:59;19.50;;;3.90;;
4521;SDS011;2273;48.464;11.926;2023-02-04T02:43:25;12.70;;;3.73;;
4521;SDS011;2273;48.464;11.926;2023-02-04T02:45:52;9.20;;;3.50;;
4521;SDS011;2273;48.464;11.926;2023-02-04T02:48:18;8.77;;;3.60;;
4521;SDS011;2273;48.464;11.926;2023-02-04T02:50:44;8.40;;;3.90;;
4521;SDS011;2273;48.464;11.926;2023-02-04T02:53:12;12.20;;;3.60;;
4521;SDS011;2273;48.464;11.926;2023-02-04T02:55:39;12.43;;;3.77;;
4521;SDS011;2273;48.464;11.926;2023-02-04T02:58:09;10.73;;;3.40;;
4521;SDS011;2273;48.464;11.926;2023-02-04T03:00:38;10.40;;;3.53;;
4521;SDS011;2273;48.464;11.926;2023-02-04T03:03:09;15.33;;;4.20;;
4521;SDS011;2273;48.464;11.926;2023-02-04T03:05:40;13.20;;;3.70;;
4521;SDS011;2273;48.464;11.926;2023-02-04T03:08:07;13.43;;;4.30;;
4521;SDS011;2273;48.464;11.926;2023-02-04T03:10:34;11.40;;;3.33;;
4521;SDS011;2273;48.464;11.926;2023-02-04T03:13:00;17.07;;;3.73;;
4521;SDS011;2273;48.464;11.926;2023-02-04T03:15:28;10.90;;;3.60;;
4521;SDS011;2273;48.464;11.926;2023-02-04T03:17:53;22.97;;;3.70;;
4521;SDS011;2273;48.464;11.926;2023-02-04T03:20:21;8.20;;;3.57;;
4521;SDS011;2273;48.464;11.926;2023-02-04T03:22:48;8.10;;;3.03;;
4521;SDS011;2273;48.464;11.926;2023-02-04T03:25:14;20.53;;;4.10;;
4521;SDS011;2273;48.464;11.926;2023-02-04T03:27:40;13.20;;;4.20;;
4521;SDS011;2273;48.464;11.926;2023-02-04T03:30:05;20.10;;;4.63;;
4521;SDS011;2273;48.464;11.926;2023-02-04T03:32:31;9.60;;;3.60;;
4521;SDS011;2273;48.464;11.926;2023-02-04T03:34:56;8.67;;;3.60;;
4521;SDS011;2273;48.464;11.926;2023-02-04T03:37:22;11.70;;;3.67;;
4521;SDS011;2273;48.464;11.926;2023-02-04T03:39:47;12.83;;;3.67;;
4521;SDS011;2273;48.464;11.926;2023-02-04T03:42:12;8.43;;;3.40;;
4521;SDS011;2273;48.464;11.926;2023-02-04T03:44:38;11.13;;;3.23;;
4521;SDS011;2273;48.464;11.926;2023-02-04T03:47:03;8.93;;;3.47;;
4521;SDS011;2273;48.464;11.926;2023-02-04T03:49:29;9.27;;;2.77;;
4521;SDS011;2273;48.464;11.926;2023-02-04T03:51:56;7.00;;;3.40;;
4521;SDS011;2273;48.464;11.926;2023-02-04T03:54:21;11.63;;;3.43;;
4521;SDS011;2273;48.464;11.926;2023-02-04T03:56:47;12.67;;;3.50;;
4521;SDS011;2273;48.464;11.926;2023-02-04T03:59:12;10.20;;;4.00;;
4521;SDS011;2273;48.464;11.926;2023-02-04T04:01:38;12.50;;;4.27;;
4521;SDS011;2273;48.464;11.926;2023-02-04T04:04:03;19.27;;;4.20;;
4521;SDS011;2273;48.464;11.926;2023-02-04T04:06:28;15.50;;;4.27;;
4521;SDS011;2273;48.464;11.926;2023-02-04T04:08:55;6.80;;;3.37;;
4521;SDS011;2273;48.464;11.926;2023-02-04T04:11:20;11.27;;;3.37;;
4521;SDS011;2273;48.464;11.926;2023-02-04T04:13:46;9.40;;;3.53;;
4521;SDS011;2273;48.464;11.926;2023-02-04T04:16:11;10.40;;;3.70;;
4521;SDS011;2273;48.464;11.926;2023-02-04T04:18:37;10.87;;;3.50;;
4521;SDS011;2273;48.464;11.926;2023-02-04T04:21:02;17.17;;;3.93;;
4521;SDS011;2273;48.464;11.926;2023-02-04T04:23:27;11.17;;;3.33;;
4521;SDS011;2273;48.464;11.926;2023-02-04T04:25:53;17.50;;;4.20;;
4521;SDS011;2273;48.464;11.926;2023-02-04T04:28:18;18.17;;;5.40;;
4521;SDS011;2273;48.464;11.926;2023-02-04T04:30:44;23.23;;;5.17;;
4521;SDS011;2273;48.464;11.926;2023-02-04T04:33:10;16.13;;;4.70;;
4521;SDS011;2273;48.464;11.926;2023-02-04T04:35:35;10.70;;;3.70;;
4521;SDS011;2273;48.464;11.926;2023-02-04T04:38:01;17.90;;;3.77;;
4521;SDS011;2273;48.464;11.926;2023-02-04T04:40:27;10.73;;;3.87;;
4521;SDS011;2273;48.464;11.926;2023-02-04T04:42:52;19.20;;;4.00;;
4521;SDS011;2273;48.464;11.926;2023-02-04T04:45:17;11.83;;;3.50;;
4521;SDS011;2273;48.464;11.926;2023-02-04T04:47:44;11.70;;;4.57;;
4521;SDS011;2273;48.464;11.926;2023-02-04T04:50:09;17.40;;;3.80;;
4521;SDS011;2273;48.464;11.926;2023-02-04T04:52:34;21.00;;;5.43;;
4521;SDS011;2273;48.464;11.926;2023-02-04T04:55:00;11.10;;;4.20;;
4521;SDS011;2273;48.464;11.926;2023-02-04T04:57:25;10.03;;;3.33;;
4521;SDS011;2273;48.464;11.926;2023-02-04T04:59:51;15.07;;;3.90;;
4521;SDS011;2273;48.464;11.926;2023-02-04T05:02:16;14.50;;;4.80;;
4521;SDS011;2273;48.464;11.926;2023-02-04T05:04:41;15.80;;;4.20;;
4521;SDS011;2273;48.464;11.926;2023-02-04T05:07:07;19.17;;;4.20;;
4521;SDS011;2273;48.464;11.926;2023-02-04T05:09:32;11.70;;;4.30;;
4521;SDS011;2273;48.464;11.926;2023-02-04T05:11:58;12.30;;;3.73;;
4521;SDS011;2273;48.464;11.926;2023-02-04T05:14:23;10.80;;;4.10;;
4521;SDS011;2273;48.464;11.926;2023-02-04T05:16:48;17.10;;;4.10;;
4521;SDS011;2273;48.464;11.926;2023-02-04T05:19:14;14.50;;;4.00;;
4521;SDS011;2273;48.464;11.926;2023-02-04T05:21:39;9.23;;;3.70;;
4521;SDS011;2273;48.464;11.926;2023-02-04T05:24:05;15.87;;;4.70;;
4521;SDS011;2273;48.464;11.926;2023-02-04T05:26:31;24.20;;;4.60;;
4521;SDS011;2273;48.464;11.926;2023-02-04T05:28:57;10.83;;;3.93;;
4521;SDS011;2273;48.464;11.926;2023-02-04T05:31:24;15.47;;;4.47;;
4521;SDS011;2273;48.464;11.926;2023-02-04T05:33:50;14.13;;;4.73;;
4521;SDS011;2273;48.464;11.926;2023-02-04T05:36:15;14.00;;;4.10;;
4521;SDS011;2273;48.464;11.926;2023-02-04T05:38:41;15.80;;;4.45;;
4521;SDS011;2273;48.464;11.926;2023-02-04T05:41:07;15.57;;;4.13;;
4521;SDS011;2273;48.464;11.926;2023-02-04T05:43:32;9.73;;;4.20;;
4521;SDS011;2273;48.464;11.926;2023-02-04T05:45:59;10.47;;;3.63;;
4521;SDS011;2273;48.464;11.926;2023-02-04T05:48:24;12.83;;;4.10;;
4521;SDS011;2273;48.464;11.926;2023-02-04T05:50:50;14.47;;;4.53;;
4521;SDS011;2273;48.464;11.926;2023-02-04T05:53:15;20.80;;;4.00;;
4521;SDS011;2273;48.464;11.926;2023-02-04T05:55:40;13.43;;;3.60;;
4521;SDS011;2273;48.464;11.926;2023-02-04T05:58:06;17.97;;;5.13;;
4521;SDS011;2273;48.464;11.926;2023-02-04T06:00:31;11.63;;;3.80;;
4521;SDS011;2273;48.464;11.926;2023-02-04T06:02:57;11.77;;;3.20;;
4521;SDS011;2273;48.464;11.926;2023-02-04T06:05:25;12.30;;;3.90;;
4521;SDS011;2273;48.464;11.926;2023-02-04T06:07:50;12.47;;;3.80;;
4521;SDS011;2273;48.464;11.926;2023-02-04T06:10:16;10.70;;;3.27;;
4521;SDS011;2273;48.464;11.926;2023-02-04T06:12:41;20.03;;;3.70;;
4521;SDS011;2273;48.464;11.926;2023-02-04T06:15:07;15.27;;;3.80;;
4521;SDS011;2273;48.464;11.926;2023-02-04T06:17:32;8.50;;;3.90;;
4521;SDS011;2273;48.464;11.926;2023-02-04T06:19:58;18.20;;;4.43;;
4521;SDS011;2273;48.464;11.926;2023-02-04T06:22:24;14.05;;;3.80;;
4521;SDS011;2273;48.464;11.926;2023-02-04T06:24:50;9.50;;;3.78;;
4521;SDS011;2273;48.464;11.926;2023-02-04T06:27:16;10.27;;;3.40;;
4521;SDS011;2273;48.464;11.926;2023-02-04T06:29:56;9.43;;;3.57;;
4521;SDS011;2273;48.464;11.926;2023-02-04T06:32:21;14.10;;;5.10;;
4521;SDS011;2273;48.464;11.926;2023-02-04T06:34:47;10.90;;;3.63;;
4521;SDS011;2273;48.464;11.926;2023-02-04T06:37:12;9.90;;;2.77;;
4521;SDS011;2273;48.464;11.926;2023-02-04T06:39:39;14.00;;;3.57;;
4521;SDS011;2273;48.464;11.926;2023-02-04T06:42:05;12.60;;;4.87;;
4521;SDS011;2273;48.464;11.926;2023-02-04T06:44:30;17.90;;;4.10;;
4521;SDS011;2273;48.464;11.926;2023-02-04T06:46:56;10.03;;;3.73;;
4521;SDS011;2273;48.464;11.926;2023-02-04T06:49:21;17.00;;;5.17;;
4521;SDS011;2273;48.464;11.926;2023-02-04T06:51:49;12.77;;;4.90;;
4521;SDS011;2273;48.464;11.926;2023-02-04T06:54:14;14.30;;;4.47;;
4521;SDS011;2273;48.464;11.926;2023-02-04T06:56:40;10.13;;;3.70;;
4521;SDS011;2273;48.464;11.926;2023-02-04T06:59:07;11.63;;;3.73;;
4521;SDS011;2273;48.464;11.926;2023-02-04T07:01:33;12.73;;;4.10;;
4521;SDS011;2273;48.464;11.926;2023-02-04T07:03:58;13.80;;;3.97;;
4521;SDS011;2273;48.464;11.926;2023-02-04T07:06:24;16.03;;;4.43;;
4521;SDS011;2273;48.464;11.926;2023-02-04T07:08:49;14.20;;;4.00;;
4521;SDS011;2273;48.464;11.926;2023-02-04T07:11:15;15.30;;;5.07;;
4521;SDS011;2273;48.464;11.926;2023-02-04T07:13:40;13.40;;;3.70;;
4521;SDS011;2273;48.464;11.926;2023-02-04T07:16:06;15.23;;;4.13;;
4521;SDS011;2273;48.464;11.926;2023-02-04T07:18:32;16.80;;;4.00;;
4521;SDS011;2273;48.464;11.926;2023-02-04T07:20:57;11.33;;;3.87;;
4521;SDS011;2273;48.464;11.926;2023-02-04T07:23:23;13.87;;;3.50;;
4521;SDS011;2273;48.464;11.926;2023-02-04T07:25:49;14.00;;;3.90;;
4521;SDS011;2273;48.464;11.926;2023-02-04T07:28:17;9.55;;;3.72;;
4521;SDS011;2273;48.464;11.926;2023-02-04T07:30:43;7.35;;;2.83;;
4521;SDS011;2273;48.464;11.926;2023-02-04T07:33:09;16.40;;;3.70;;
4521;SDS011;2273;48.464;11.926;2023-02-04T07:35:34;8.03;;;3.37;;
4521;SDS011;2273;48.464;11.926;2023-02-04T07:38:02;7.67;;;2.93;;
4521;SDS011;2273;48.464;11.926;2023-02-04T07:40:27;9.50;;;3.47;;
4521;SDS011;2273;48.464;11.926;2023-02-04T07:42:53;8.40;;;3.30;;
4521;SDS011;2273;48.464;11.926;2023-02-04T07:45:20;16.37;;;3.83;;
4521;SDS011;2273;48.464;11.926;2023-02-04T07:47:46;10.70;;;4.30;;
4521;SDS011;2273;48.464;11.926;2023-02-04T07:50:11;11.13;;;4.10;;
4521;SDS011;2273;48.464;11.926;2023-02-04T07:52:37;12.97;;;3.57;;
4521;SDS011;2273;48.464;11.926;2023-02-04T07:55:03;19.80;;;5.00;;
4521;SDS011;2273;48.464;11.926;2023-02-04T07:57:29;10.43;;;4.68;;
4521;SDS011;2273;48.464;11.926;2023-02-04T07:59:55;11.27;;;4.00;;
4521;SDS011;2273;48.464;11.926;2023-02-04T08:02:20;11.07;;;4.03;;
4521;SDS011;2273;48.464;11.926;2023-02-04T08:04:45;7.00;;;2.70;;
4521;SDS011;2273;48.464;11.926;2023-02-04T08:07:11;3.20;;;2.00;;
4521;SDS011;2273;48.464;11.926;2023-02-04T08:09:36;4.23;;;2.17;;
4521;SDS011;2273;48.464;11.926;2023-02-04T08:12:02;3.83;;;2.47;;
4521;SDS011;2273;48.464;11.926;2023-02-04T08:14:27;4.77;;;2.17;;
4521;SDS011;2273;48.464;11.926;2023-02-04T08:16:53;1.83;;;1.70;;
4521;SDS011;2273;48.464;11.926;2023-02-04T08:19:18;2.13;;;1.93;;
4521;SDS011;2273;48.464;11.926;2023-02-04T08:21:45;4.80;;;2.03;;
4521;SDS011;2273;48.464;11.926;2023-02-04T08:24:12;2.33;;;2.00;;
4521;SDS011;2273;48.464;11.926;2023-02-04T08:26:38;3.63;;;2.25;;
4521;SDS011;2273;48.464;11.926;2023-02-04T08:29:04;3.70;;;2.20;;
4521;SDS011;2273;48.464;11.926;2023-02-04T08:31:29;4.17;;;2.60;;
4521;SDS011;2273;48.464;11.926;2023-02-04T08:33:55;3.30;;;2.40;;
4521;SDS011;2273;48.464;11.926;2023-02-04T08:36:20;3.00;;;2.30;;
4521;SDS011;2273;48.464;11.926;2023-02-04T08:38:45;3.67;;;2.97;;
4521;SDS011;2273;48.464;11.926;2023-02-04T08:41:11;5.83;;;3.20;;
4521;SDS011;2273;48.464;11.926;2023-02-04T08:43:36;5.63;;;3.20;;
4521;SDS011;2273;48.464;11.926;2023-02-04T08:46:02;6.10;;;3.20;;
4521;SDS011;2273;48.464;11.926;2023-02-04T08:48:27;8.07;;;3.70;;
4521;SDS011;2273;48.464;11.926;2023-02-04T08:50:53;4.50;;;3.00;;
4521;SDS011;2273;48.464;11.926;2023-02-04T08:53:18;4.23;;;2.67;;
4521;SDS011;2273;48.464;11.926;2023-02-04T08:55:43;5.27;;;2.57;;
4521;SDS011;2273;48.464;11.926;2023-02-04T08:58:09;3.07;;;2.30;;
4521;SDS011;2273;48.464;11.926;2023-02-04T09:00:34;4.20;;;2.77;;
4521;SDS011;2273;48.464;11.926;2023-02-04T09:03:00;2.80;;;2.20;;
4521;SDS011;2273;48.464;11.926;2023-02-04T09:05:25;5.47;;;2.40;;
4521;SDS011;2273;48.464;11.926;2023-02-04T09:07:51;3.10;;;2.50;;
4521;SDS011;2273;48.464;11.926;2023-02-04T09:10:16;5.80;;;2.63;;
4521;SDS011;2273;48.464;11.926;2023-02-04T09:12:42;4.03;;;2.43;;
4521;SDS011;2273;48.464;11.926;2023-02-04T09:15:08;3.07;;;2.80;;
4521;SDS011;2273;48.464;11.926;2023-02-04T09:17:34;2.73;;;2.53;;
4521;SDS011;2273;48.464;11.926;2023-02-04T09:20:00;4.70;;;2.80;;
4521;SDS011;2273;48.464;11.926;2023-02-04T09:22:25;2.57;;;2.30;;
4521;SDS011;2273;48.464;11.926;2023-02-04T09:24:50;4.67;;;2.90;;
4521;SDS011;2273;48.464;11.926;2023-02-04T09:27:16;4.00;;;2.70;;
4521;SDS011;2273;48.464;11.926;2023-02-04T09:29:41;6.50;;;2.47;;
4521;SDS011;2273;48.464;11.926;2023-02-04T09:32:07;4.70;;;2.70;;
4521;SDS011;2273;48.464;11.926;2023-02-04T09:34:32;2.27;;;2.07;;
4521;SDS011;2273;48.464;11.926;2023-02-04T09:36:58;3.47;;;2.50;;
4521;SDS011;2273;48.464;11.926;2023-02-04T09:39:23;2.93;;;2.57;;
4521;SDS011;2273;48.464;11.926;2023-02-04T09:41:48;2.63;;;2.20;;
4521;SDS011;2273;48.464;11.926;2023-02-04T09:44:16;2.40;;;2.20;;
4521;SDS011;2273;48.464;11.926;2023-02-04T09:46:47;3.37;;;2.80;;
4521;SDS011;2273;48.464;11.926;2023-02-04T09:49:14;4.47;;;2.80;;
4521;SDS011;2273;48.464;11.926;2023-02-04T09:51:39;3.50;;;2.80;;
4521;SDS011;2273;48.464;11.926;2023-02-04T09:54:06;3.10;;;2.80;;
4521;SDS011;2273;48.464;11.926;2023-02-04T09:56:33;14.97;;;2.97;;
4521;SDS011;2273;48.464;11.926;2023-02-04T09:58:59;5.00;;;2.70;;
4521;SDS011;2273;48.464;11.926;2023-02-04T10:01:25;4.20;;;2.80;;
4521;SDS011;2273;48.464;11.926;2023-02-04T10:03:51;4.57;;;3.20;;
4521;SDS011;2273;48.464;11.926;2023-02-04T10:06:18;4.77;;;3.33;;
4521;SDS011;2273;48.464;11.926;2023-02-04T10:08:45;4.40;;;3.30;;
4521;SDS011;2273;48.464;11.926;2023-02-04T10:11:12;4.17;;;2.80;;
4521;SDS011;2273;48.464;11.926;2023-02-04T10:13:40;3.30;;;2.90;;
4521;SDS011;2273;48.464;11.926;2023-02-04T10:16:14;2.80;;;2.60;;
4521;SDS011;2273;48.464;11.926;2023-02-04T10:18:41;2.67;;;2.47;;
4521;SDS011;2273;48.464;11.926;2023-02-04T10:23:38;3.57;;;3.03;;
4521;SDS011;2273;48.464;11.926;2023-02-04T10:26:03;4.50;;;3.43;;
4521;SDS011;2273;48.464;11.926;2023-02-04T10:28:35;3.23;;;2.93;;
4521;SDS011;2273;48.464;11.926;2023-02-04T10:31:01;3.40;;;3.10;;
4521;SDS011;2273;48.464;11.926;2023-02-04T10:33:27;3.87;;;3.43;;
4521;SDS011;2273;48.464;11.926;2023-02-04T10:35:54;3.80;;;2.93;;
4521;SDS011;2273;48.464;11.926;2023-02-04T10:38:20;3.90;;;3.40;;
4521;SDS011;2273;48.464;11.926;2023-02-04T10:40:46;3.70;;;2.80;;
4521;SDS011;2273;48.464;11.926;2023-02-04T10:43:16;6.00;;;4.13;;
4521;SDS011;2273;48.464;11.926;2023-02-04T10:45:43;5.13;;;3.90;;
4521;SDS011;2273;48.464;11.926;2023-02-04T10:48:17;6.77;;;4.90;;
4521;SDS011;2273;48.464;11.926;2023-02-04T10:50:44;6.03;;;4.40;;
4521;SDS011;2273;48.464;11.926;2023-02-04T10:53:10;3.40;;;3.10;;
4521;SDS011;2273;48.464;11.926;2023-02-04T10:55:56;8.10;;;3.10;;
4521;SDS011;2273;48.464;11.926;2023-02-04T10:58:23;3.03;;;2.73;;
4521;SDS011;2273;48.464;11.926;2023-02-04T11:00:51;4.30;;;3.10;;
4521;SDS011;2273;48.464;11.926;2023-02-04T11:03:27;4.40;;;3.60;;
4521;SDS011;2273;48.464;11.926;2023-02-04T11:05:57;8.93;;;4.87;;
4521;SDS011;2273;48.464;11.926;2023-02-04T11:08:25;2.63;;;2.43;;
4521;SDS011;2273;48.464;11.926;2023-02-04T11:13:45;2.50;;;1.93;;
4521;SDS011;2273;48.464;11.926;2023-02-04T11:18:49;2.63;;;2.43;;
4521;SDS011;2273;48.464;11.926;2023-02-04T11:26:47;3.47;;;2.27;;
4521;SDS011;2273;48.464;11.926;2023-02-04T11:31:56;5.37;;;1.80;;
4521;SDS011;2273;48.464;11.926;2023-02-04T11:34:25;2.33;;;2.13;;
4521;SDS011;2273;48.464;11.926;2023-02-04T11:39:21;2.30;;;2.10;;
4521;SDS011;2273;48.464;11.926;2023-02-04T11:41:46;4.20;;;2.30;;
4521;SDS011;2273;48.464;11.926;2023-02-04T11:44:12;2.73;;;2.53;;
4521;SDS011;2273;48.464;11.926;2023-02-04T11:46:38;3.00;;;2.30;;
4521;SDS011;2273;48.464;11.926;2023-02-04T11:49:08;2.57;;;2.37;;
4521;SDS011;2273;48.464;11.926;2023-02-04T11:51:39;2.57;;;2.30;;
4521;SDS011;2273;48.464;11.926;2023-02-04T11:54:05;2.80;;;2.50;;
4521;SDS011;2273;48.464;11.926;2023-02-04T11:56:30;2.70;;;2.10;;
4521;SDS011;2273;48.464;11.926;2023-02-04T11:58:57;2.00;;;1.90;;
4521;SDS011;2273;48.464;11.926;2023-02-04T12:01:23;1.97;;;1.87;;
4521;SDS011;2273;48.464;11.926;2023-02-04T12:03:57;2.10;;;1.90;;
4521;SDS011;2273;48.464;11.926;2023-02-04T12:06:31;2.90;;;2.30;;
4521;SDS011;2273;48.464;11.926;2023-02-04T12:09:19;2.13;;;1.97;;
4521;SDS011;2273;48.464;11.926;2023-02-04T12:11:58;2.07;;;1.93;;
4521;SDS011;2273;48.464;11.926;2023-02-04T12:14:32;2.40;;;2.20;;
4521;SDS011;2273;48.464;11.926;2023-02-04T12:16:57;2.90;;;2.53;;
4521;SDS011;2273;48.464;11.926;2023-02-04T12:19:23;2.90;;;2.70;;
4521;SDS011;2273;48.464;11.926;2023-02-04T12:21:48;2.90;;;2.33;;
4521;SDS011;2273;48.464;11.926;2023-02-04T12:24:14;2.67;;;2.23;;
4521;SDS011;2273;48.464;11.926;2023-02-04T12:26:39;2.60;;;2.30;;
4521;SDS011;2273;48.464;11.926;2023-02-04T12:29:04;8.40;;;2.77;;
4521;SDS011;2273;48.464;11.926;2023-02-04T12:31:30;2.53;;;2.10;;
4521;SDS011;2273;48.464;11.926;2023-02-04T12:33:56;2.40;;;2.20;;
4521;SDS011;2273;48.464;11.926;2023-02-04T12:36:22;2.87;;;2.57;;
4521;SDS011;2273;48.464;11.926;2023-02-04T12:38:47;2.00;;;1.80;;
4521;SDS011;2273;48.464;11.926;2023-02-04T12:41:12;2.73;;;2.23;;
4521;SDS011;2273;48.464;11.926;2023-02-04T12:43:38;2.60;;;2.27;;
4521;SDS011;2273;48.464;11.926;2023-02-04T12:46:03;4.57;;;2.07;;
4521;SDS011;2273;48.464;11.926;2023-02-04T12:48:29;2.23;;;2.03;;
4521;SDS011;2273;48.464;11.926;2023-02-04T12:50:54;2.10;;;1.90;;
4521;SDS011;2273;48.464;11.926;2023-02-04T12:53:20;3.53;;;2.20;;
4521;SDS011;2273;48.464;11.926;2023-02-04T12:55:45;3.63;;;2.67;;
4521;SDS011;2273;48.464;11.926;2023-02-04T12:58:11;3.30;;;3.00;;
4521;SDS011;2273;48.464;11.926;2023-02-04T13:00:36;2.80;;;2.20;;
4521;SDS011;2273;48.464;11.926;2023-02-04T13:03:01;2.20;;;1.80;;
4521;SDS011;2273;48.464;11.926;2023-02-04T13:05:27;2.30;;;2.10;;
4521;SDS011;2273;48.464;11.926;2023-02-04T13:07:52;2.23;;;1.97;;
4521;SDS011;2273;48.464;11.926;2023-02-04T13:10:18;2.40;;;2.00;;
4521;SDS011;2273;48.464;11.926;2023-02-04T13:12:45;2.07;;;1.80;;
4521;SDS011;2273;48.464;11.926;2023-02-04T13:15:11;2.60;;;2.10;;
4521;SDS011;2273;48.464;11.926;2023-02-04T13:17:36;4.70;;;2.10;;
4521;SDS011;2273;48.464;11.926;2023-02-04T13:20:02;2.23;;;2.03;;
4521;SDS011;2273;48.464;11.926;2023-02-04T13:22:28;4.27;;;2.30;;
4521;SDS011;2273;48.464;11.926;2023-02-04T13:24:53;3.20;;;1.97;;
4521;SDS011;2273;48.464;11.926;2023-02-04T13:27:19;7.10;;;2.20;;
4521;SDS011;2273;48.464;11.926;2023-02-04T13:29:44;2.30;;;2.10;;
4521;SDS011;2273;48.464;11.926;2023-02-04T13:32:09;2.20;;;2.00;;
4521;SDS011;2273;48.464;11.926;2023-02-04T13:34:35;2.33;;;2.13;;
4521;SDS011;2273;48.464;11.926;2023-02-04T13:37:01;4.00;;;2.20;;
4521;SDS011;2273;48.464;11.926;2023-02-04T13:39:26;2.10;;;1.90;;
4521;SDS011;2273;48.464;11.926;2023-02-04T13:41:51;3.33;;;2.30;;
4521;SDS011;2273;48.464;11.926;2023-02-04T13:44:17;3.00;;;2.50;;
4521;SDS011;2273;48.464;11.926;2023-02-04T13:46:42;2.97;;;2.03;;
4521;SDS011;2273;48.464;11.926;2023-02-04T13:49:08;2.57;;;2.30;;
4521;SDS011;2273;48.464;11.926;2023-02-04T13:51:33;3.77;;;2.70;;
4521;SDS011;2273;48.464;11.926;2023-02-04T13:53:58;6.63;;;3.47;;
4521;SDS011;2273;48.464;11.926;2023-02-04T13:56:25;4.50;;;2.90;;
4521;SDS011;2273;48.464;11.926;2023-02-04T13:58:51;6.47;;;3.30;;
4521;SDS011;2273;48.464;11.926;2023-02-04T14:01:16;4.23;;;2.70;;
4521;SDS011;2273;48.464;11.926;2023-02-04T14:03:41;3.37;;;2.73;;
4521;SDS011;2273;48.464;11.926;2023-02-04T14:06:07;2.50;;;2.00;;
4521;SDS011;2273;48.464;11.926;2023-02-04T14:08:33;2.50;;;2.20;;
4521;SDS011;2273;48.464;11.926;2023-02-04T14:10:58;5.90;;;2.37;;
4521;SDS011;2273;48.464;11.926;2023-02-04T14:13:24;6.03;;;3.80;;
4521;SDS011;2273;48.464;11.926;2023-02-04T14:15:50;6.17;;;2.83;;
4521;SDS011;2273;48.464;11.926;2023-02-04T14:18:16;3.50;;;2.87;;
4521;SDS011;2273;48.464;11.926;2023-02-04T14:20:42;3.07;;;2.33;;
4521;SDS011;2273;48.464;11.926;2023-02-04T14:23:07;3.40;;;2.50;;
4521;SDS011;2273;48.464;11.926;2023-02-04T14:25:33;2.73;;;2.13;;
4521;SDS011;2273;48.464;11.926;2023-02-04T14:27:59;2.80;;;2.53;;
4521;SDS011;2273;48.464;11.926;2023-02-04T14:30:25;2.53;;;2.33;;
4521;SDS011;2273;48.464;11.926;2023-02-04T14:32:52;3.50;;;2.50;;
4521;SDS011;2273;48.464;11.926;2023-02-04T14:35:18;2.60;;;2.30;;
4521;SDS011;2273;48.464;11.926;2023-02-04T14:37:43;2.30;;;2.10;;
4521;SDS011;2273;48.464;11.926;2023-02-04T14:40:10;2.50;;;2.30;;
4521;SDS011;2273;48.464;11.926;2023-02-04T14:42:36;2.20;;;1.93;;
4521;SDS011;2273;48.464;11.926;2023-02-04T14:45:03;3.30;;;2.27;;
4521;SDS011;2273;48.464;11.926;2023-02-04T14:47:31;2.67;;;2.20;;
4521;SDS011;2273;48.464;11.926;2023-02-04T14:49:56;2.33;;;2.13;;
4521;SDS011;2273;48.464;11.926;2023-02-04T14:52:22;2.93;;;2.27;;
4521;SDS011;2273;48.464;11.926;2023-02-04T14:54:47;2.27;;;2.07;;
4521;SDS011;2273;48.464;11.926;2023-02-04T14:57:13;2.73;;;2.40;;
4521;SDS011;2273;48.464;11.926;2023-02-04T14:59:38;3.80;;;2.30;;
4521;SDS011;2273;48.464;11.926;2023-02-04T15:02:04;3.23;;;2.40;;
4521;SDS011;2273;48.464;11.926;2023-02-04T15:04:30;6.13;;;3.17;;
4521;SDS011;2273;48.464;11.926;2023-02-04T15:06:55;4.70;;;3.10;;
4521;SDS011;2273;48.464;11.926;2023-02-04T15:09:22;5.60;;;3.60;;